createdAt,value
2022-10-15T00:01:35.575Z,52.08
2022-10-15T00:04:03.283Z,52.55
2022-10-15T00:06:32.820Z,48.85
2022-10-15T00:09:00.541Z,50.03
2022-10-15T00:11:29.281Z,47.90
2022-10-15T00:13:59.286Z,50.30
2022-10-15T00:16:28.690Z,51.17
2022-10-15T00:18:58.996Z,56.15
2022-10-15T00:21:27.097Z,59.78
2022-10-15T00:23:55.832Z,48.53
2022-10-15T00:26:26.181Z,41.85
2022-10-15T00:28:57.101Z,38.80
2022-10-15T00:31:27.248Z,38.40
2022-10-15T00:33:57.786Z,36.75
2022-10-15T00:36:28.489Z,35.42
2022-10-15T00:38:57.286Z,49.53
2022-10-15T00:41:33.733Z,42.63
2022-10-15T00:44:23.241Z,48.53
2022-10-15T00:46:56.767Z,49.40
2022-10-15T00:49:31.255Z,54.25
2022-10-15T00:52:13.414Z,55.47
2022-10-15T00:54:43.923Z,52.30
2022-10-15T00:57:11.773Z,55.80
2022-10-15T00:59:43.493Z,67.60
2022-10-15T01:02:12.269Z,53.28
2022-10-15T01:04:41.734Z,55.80
2022-10-15T01:07:09.613Z,65.88
2022-10-15T01:09:42.880Z,65.00
2022-10-15T01:12:24.629Z,53.05
2022-10-15T01:15:16.535Z,54.53
2022-10-15T01:17:55.050Z,56.08
2022-10-15T01:20:47.489Z,52.00
2022-10-15T01:23:36.819Z,54.42
2022-10-15T01:26:23.132Z,56.15
2022-10-15T01:28:54.703Z,55.00
2022-10-15T01:31:29.135Z,54.70
2022-10-15T01:34:02.822Z,54.13
2022-10-15T01:36:55.360Z,54.28
2022-10-15T01:39:31.087Z,54.67
2022-10-15T01:42:31.857Z,57.60
2022-10-15T01:45:07.433Z,54.22
2022-10-15T01:47:55.471Z,54.80
2022-10-15T01:50:26.096Z,57.03
2022-10-15T01:52:56.236Z,52.97
2022-10-15T01:55:25.869Z,53.03
2022-10-15T01:57:56.078Z,51.63
2022-10-15T02:00:26.704Z,36.63
2022-10-15T02:02:54.522Z,54.13
2022-10-15T02:05:26.128Z,51.90
2022-10-15T02:08:05.616Z,52.15
2022-10-15T02:10:48.776Z,54.33
2022-10-15T02:13:26.424Z,54.50
2022-10-15T02:16:07.069Z,55.58
2022-10-15T02:18:57.113Z,53.95
2022-10-15T02:21:35.476Z,55.20
2022-10-15T02:24:12.349Z,54.80
2022-10-15T02:26:43.602Z,53.42
2022-10-15T02:29:13.639Z,55.55
2022-10-15T02:31:44.268Z,54.88
2022-10-15T02:34:15.668Z,57.17
2022-10-15T02:36:44.023Z,56.35
2022-10-15T02:39:13.753Z,55.83
2022-10-15T02:41:42.505Z,59.40
2022-10-15T02:44:13.665Z,60.63
2022-10-15T02:46:41.494Z,58.88
2022-10-15T02:49:11.393Z,60.13
2022-10-15T02:51:39.388Z,56.15
2022-10-15T02:54:08.749Z,59.35
2022-10-15T02:56:39.641Z,58.83
2022-10-15T02:59:08.267Z,59.83
2022-10-15T03:01:35.870Z,57.85
2022-10-15T03:04:06.214Z,58.47
2022-10-15T03:06:34.951Z,57.22
2022-10-15T03:09:03.032Z,58.95
2022-10-15T03:11:32.513Z,58.95
2022-10-15T03:14:00.176Z,57.30
2022-10-15T03:16:28.519Z,56.08
2022-10-15T03:18:56.480Z,60.15
2022-10-15T03:21:24.799Z,57.40
2022-10-15T03:23:58.801Z,54.33
2022-10-15T03:26:27.972Z,55.63
2022-10-15T03:28:55.982Z,56.30
2022-10-15T03:31:36.425Z,57.70
2022-10-15T03:34:05.388Z,54.85
2022-10-15T03:36:33.835Z,51.88
2022-10-15T03:39:02.442Z,55.40
2022-10-15T03:41:30.928Z,54.55
2022-10-15T03:44:06.613Z,55.72
2022-10-15T03:46:37.160Z,54.92
2022-10-15T03:49:05.879Z,57.30
2022-10-15T03:51:33.632Z,55.78
2022-10-15T03:54:07.330Z,54.80
2022-10-15T03:56:42.522Z,52.00
2022-10-15T03:59:24.942Z,41.15
2022-10-15T04:01:59.551Z,54.20
2022-10-15T04:04:28.390Z,55.83
2022-10-15T04:06:56.846Z,59.78
2022-10-15T04:09:24.934Z,58.50
2022-10-15T04:11:53.425Z,59.85
2022-10-15T04:14:21.679Z,58.22
2022-10-15T04:16:50.172Z,61.35
2022-10-15T04:19:23.346Z,59.38
2022-10-15T04:22:00.713Z,58.97
2022-10-15T04:27:01.258Z,56.95
2022-10-15T04:29:29.580Z,60.10
2022-10-15T04:34:50.563Z,57.42
2022-10-15T04:37:26.456Z,56.88
2022-10-15T04:39:54.233Z,59.65
2022-10-15T04:42:22.449Z,58.00
2022-10-15T04:44:50.430Z,57.83
2022-10-15T04:47:18.769Z,57.45
2022-10-15T04:49:53.213Z,55.80
2022-10-15T04:52:44.480Z,53.63
2022-10-15T04:55:14.411Z,52.15
2022-10-15T04:57:42.105Z,53.75
2022-10-15T05:00:10.849Z,53.28
2022-10-15T05:02:43.294Z,54.70
2022-10-15T05:05:33.517Z,55.95
2022-10-15T05:08:05.916Z,53.03
2022-10-15T05:10:46.038Z,51.90
2022-10-15T05:13:15.032Z,53.65
2022-10-15T05:15:43.143Z,53.03
2022-10-15T05:18:11.423Z,52.47
2022-10-15T05:20:51.872Z,51.20
2022-10-15T05:23:20.642Z,53.33
2022-10-15T05:26:03.621Z,50.53
2022-10-15T05:28:32.256Z,52.53
2022-10-15T05:31:19.295Z,53.22
2022-10-15T05:33:48.630Z,51.80
2022-10-15T05:36:19.868Z,50.97
2022-10-15T05:38:57.543Z,52.15
2022-10-15T05:41:26.590Z,51.50
2022-10-15T05:43:57.861Z,49.25
2022-10-15T05:46:29.532Z,55.83
2022-10-15T05:48:58.683Z,60.22
2022-10-15T05:51:29.189Z,59.47
2022-10-15T05:54:03.826Z,57.28
2022-10-15T05:56:32.489Z,50.28
2022-10-15T05:59:00.176Z,49.45
2022-10-15T06:01:28.873Z,50.55
2022-10-15T06:03:56.773Z,48.55
2022-10-15T06:06:27.513Z,45.40
2022-10-15T06:08:56.606Z,45.50
2022-10-15T06:11:24.383Z,46.08
2022-10-15T06:13:52.241Z,44.83
2022-10-15T06:16:23.684Z,46.33
2022-10-15T06:18:54.180Z,45.78
2022-10-15T06:21:22.272Z,44.15
2022-10-15T06:23:50.774Z,41.88
2022-10-15T06:26:18.450Z,40.60
2022-10-15T06:28:49.788Z,38.55
2022-10-15T06:31:17.598Z,38.15
2022-10-15T06:33:45.374Z,38.72
2022-10-15T06:36:16.762Z,38.30
2022-10-15T06:38:47.738Z,37.72
2022-10-15T06:41:16.940Z,37.13
2022-10-15T06:43:47.822Z,38.08
2022-10-15T06:46:16.206Z,39.90
2022-10-15T06:48:44.021Z,38.55
2022-10-15T06:51:12.390Z,38.17
2022-10-15T06:53:45.047Z,39.38
2022-10-15T06:56:12.747Z,39.10
2022-10-15T06:58:43.521Z,38.17
2022-10-15T07:01:11.965Z,39.05
2022-10-15T07:03:39.889Z,38.80
2022-10-15T07:06:09.740Z,37.97
2022-10-15T07:08:37.581Z,36.22
2022-10-15T07:11:07.779Z,36.15
2022-10-15T07:13:35.660Z,37.35
2022-10-15T07:16:06.328Z,35.72
2022-10-15T07:18:35.641Z,35.05
2022-10-15T07:21:04.747Z,33.00
2022-10-15T07:23:33.216Z,32.22
2022-10-15T07:26:01.844Z,33.08
2022-10-15T07:28:29.798Z,32.25
2022-10-15T07:31:03.291Z,32.55
2022-10-15T07:33:33.751Z,30.55
2022-10-15T07:36:06.366Z,29.02
2022-10-15T07:38:35.063Z,29.73
2022-10-15T07:41:04.635Z,31.63
2022-10-15T07:43:34.935Z,28.65
2022-10-15T07:46:03.810Z,30.35
2022-10-15T07:48:32.389Z,29.83
2022-10-15T07:51:05.469Z,28.50
2022-10-15T07:53:34.601Z,29.52
2022-10-15T07:56:06.358Z,29.98
2022-10-15T07:58:37.838Z,29.00
2022-10-15T08:01:07.383Z,29.98
2022-10-15T08:03:36.070Z,27.48
2022-10-15T08:06:06.810Z,28.77
2022-10-15T08:08:36.342Z,28.73
2022-10-15T08:11:14.749Z,28.98
2022-10-15T08:13:43.652Z,28.33
2022-10-15T08:16:14.020Z,26.30
2022-10-15T08:18:43.686Z,25.00
2022-10-15T08:21:12.238Z,26.60
2022-10-15T08:23:40.329Z,25.33
2022-10-15T08:26:08.602Z,25.92
2022-10-15T08:28:36.790Z,23.85
2022-10-15T08:31:06.275Z,25.88
2022-10-15T08:33:35.819Z,24.40
2022-10-15T08:36:08.104Z,24.30
2022-10-15T08:38:36.655Z,23.50
2022-10-15T08:41:12.361Z,24.42
2022-10-15T08:43:44.060Z,24.50
2022-10-15T08:46:21.577Z,25.20
2022-10-15T08:48:53.983Z,25.48
2022-10-15T08:51:26.982Z,25.20
2022-10-15T08:54:03.305Z,23.50
2022-10-15T08:56:36.845Z,26.80
2022-10-15T08:59:32.109Z,24.92
2022-10-15T09:02:24.244Z,24.35
2022-10-15T09:05:16.888Z,26.20
2022-10-15T09:08:06.766Z,25.88
2022-10-15T09:10:41.410Z,26.55
2022-10-15T09:13:22.012Z,26.73
2022-10-15T09:16:13.165Z,27.20
2022-10-15T09:18:43.994Z,26.40
2022-10-15T09:21:14.529Z,25.85
2022-10-15T09:23:44.220Z,28.52
2022-10-15T09:26:49.949Z,26.88
2022-10-15T09:29:29.477Z,27.02
2022-10-15T09:32:31.660Z,25.23
2022-10-15T09:35:24.224Z,25.98
2022-10-15T09:38:15.589Z,25.90
2022-10-15T09:41:02.237Z,25.17
2022-10-15T09:43:38.398Z,25.02
2022-10-15T09:46:06.813Z,23.17
2022-10-15T09:48:44.574Z,25.75
2022-10-15T09:51:27.029Z,26.05
2022-10-15T09:54:13.441Z,31.23
2022-10-15T09:56:50.163Z,26.88
2022-10-15T09:59:19.581Z,24.55
2022-10-15T10:02:00.256Z,23.27
2022-10-15T10:04:31.652Z,25.60
2022-10-15T10:07:03.420Z,24.10
2022-10-15T10:09:52.751Z,21.98
2022-10-15T10:12:27.310Z,24.42
2022-10-15T10:14:59.178Z,22.70
2022-10-15T10:17:29.586Z,22.75
2022-10-15T10:20:16.015Z,21.70
2022-10-15T10:22:56.003Z,22.30
2022-10-15T10:25:27.302Z,21.40
2022-10-15T10:27:57.185Z,21.67
2022-10-15T10:30:27.915Z,22.27
2022-10-15T10:32:57.719Z,20.90
2022-10-15T10:35:30.113Z,21.02
2022-10-15T10:37:57.901Z,20.70
2022-10-15T10:40:33.083Z,20.85
2022-10-15T10:43:18.538Z,20.35
2022-10-15T10:46:15.036Z,21.02
2022-10-15T10:48:50.243Z,20.45
2022-10-15T10:51:24.705Z,20.05
2022-10-15T10:53:57.522Z,20.02
2022-10-15T10:56:43.876Z,19.33
2022-10-15T10:59:37.130Z,20.30
2022-10-15T11:04:39.445Z,20.20
2022-10-15T11:07:19.880Z,19.58
2022-10-15T11:09:59.749Z,19.73
2022-10-15T11:12:34.196Z,18.25
2022-10-15T11:15:39.230Z,18.13
2022-10-15T11:18:44.916Z,18.48
2022-10-15T11:21:24.465Z,19.50
2022-10-15T11:24:11.125Z,18.65
2022-10-15T11:27:10.149Z,18.77
2022-10-15T11:30:01.309Z,18.75
2022-10-15T11:33:05.456Z,19.48
2022-10-15T11:35:52.895Z,17.80
2022-10-15T11:38:43.000Z,18.23
2022-10-15T11:41:37.238Z,17.88
2022-10-15T11:44:46.638Z,19.30
2022-10-15T11:47:26.686Z,18.98
2022-10-15T11:50:18.011Z,18.20
2022-10-15T11:52:58.562Z,18.70
2022-10-15T11:55:38.079Z,18.67
2022-10-15T11:58:29.600Z,18.60
2022-10-15T12:01:01.814Z,18.88
2022-10-15T12:03:32.509Z,18.60
2022-10-15T12:06:04.333Z,17.55
2022-10-15T12:08:35.833Z,16.88
2022-10-15T12:11:03.801Z,18.83
2022-10-15T12:13:46.283Z,17.33
2022-10-15T12:16:38.520Z,17.13
2022-10-15T12:19:20.977Z,17.63
2022-10-15T12:22:06.963Z,17.90
2022-10-15T12:24:38.471Z,17.90
2022-10-15T12:27:35.986Z,17.88
2022-10-15T12:30:04.134Z,18.02
2022-10-15T12:32:41.734Z,17.45
2022-10-15T12:35:15.607Z,18.10
2022-10-15T12:37:46.098Z,18.42
2022-10-15T12:40:22.822Z,17.83
2022-10-15T12:42:58.104Z,16.83
2022-10-15T12:45:48.843Z,18.58
2022-10-15T12:48:16.745Z,17.50
2022-10-15T12:50:47.820Z,19.02
2022-10-15T12:53:33.101Z,17.63
2022-10-15T12:56:24.304Z,19.40
2022-10-15T12:58:54.139Z,18.23
2022-10-15T13:01:22.891Z,17.58
2022-10-15T13:03:50.658Z,18.17
2022-10-15T13:06:26.150Z,17.52
2022-10-15T13:09:14.546Z,18.88
2022-10-15T13:11:48.991Z,18.67
2022-10-15T13:14:28.580Z,18.45
2022-10-15T13:17:03.656Z,18.33
2022-10-15T13:19:39.363Z,17.77
2022-10-15T13:22:24.111Z,18.63
2022-10-15T13:24:52.677Z,16.33
2022-10-15T13:27:26.342Z,16.80
2022-10-15T13:30:06.859Z,17.75
2022-10-15T13:32:39.090Z,19.23
2022-10-15T13:35:12.029Z,17.25
2022-10-15T13:37:41.602Z,17.25
2022-10-15T13:40:29.966Z,19.13
2022-10-15T13:43:00.378Z,20.65
2022-10-15T13:45:29.082Z,21.15
2022-10-15T13:47:57.509Z,23.60
2022-10-15T13:50:36.362Z,21.58
2022-10-15T13:53:12.992Z,19.55
2022-10-15T13:55:46.388Z,21.20
2022-10-15T13:58:29.858Z,19.10
2022-10-15T14:01:01.255Z,19.05
2022-10-15T14:03:33.855Z,19.90
2022-10-15T14:06:22.500Z,18.80
2022-10-15T14:08:56.771Z,18.48
2022-10-15T14:11:26.317Z,19.45
2022-10-15T14:13:56.965Z,22.02
2022-10-15T14:16:35.946Z,25.23
2022-10-15T14:19:07.318Z,26.10
2022-10-15T14:21:36.843Z,23.35
2022-10-15T14:24:06.587Z,27.98
2022-10-15T14:26:36.084Z,24.35
2022-10-15T14:29:03.858Z,22.88
2022-10-15T14:31:46.649Z,22.95
2022-10-15T14:34:36.462Z,20.13
2022-10-15T14:37:42.679Z,20.65
2022-10-15T14:40:13.434Z,20.10
2022-10-15T14:42:43.934Z,20.63
2022-10-15T14:45:17.980Z,21.38
2022-10-15T14:48:00.812Z,26.65
2022-10-15T14:50:32.303Z,28.37
2022-10-15T14:53:01.300Z,26.63
2022-10-15T14:55:38.308Z,22.60
2022-10-15T14:58:18.013Z,25.02
2022-10-15T15:00:47.966Z,26.15
2022-10-15T15:03:20.112Z,26.42
2022-10-15T15:05:53.484Z,25.05
2022-10-15T15:08:25.589Z,25.13
2022-10-15T15:10:56.099Z,23.88
2022-10-15T15:13:25.684Z,24.67
2022-10-15T15:15:54.219Z,23.50
2022-10-15T15:18:22.245Z,24.50
2022-10-15T15:20:50.946Z,25.60
2022-10-15T15:23:22.196Z,24.75
2022-10-15T15:25:50.815Z,24.83
2022-10-15T15:28:21.805Z,24.23
2022-10-15T15:31:11.359Z,25.33
2022-10-15T15:33:39.611Z,23.70
2022-10-15T15:36:20.855Z,21.38
2022-10-15T15:38:51.861Z,23.90
2022-10-15T15:41:21.635Z,20.38
2022-10-15T15:43:50.263Z,20.60
2022-10-15T15:46:18.098Z,20.35
2022-10-15T15:48:46.416Z,21.33
2022-10-15T15:51:29.090Z,20.73
2022-10-15T15:53:59.409Z,19.50
2022-10-15T15:56:27.074Z,20.02
2022-10-15T15:58:54.911Z,19.67
2022-10-15T16:01:22.854Z,20.73
2022-10-15T16:03:51.081Z,22.20
2022-10-15T16:06:19.070Z,19.25
2022-10-15T16:08:47.664Z,19.35
2022-10-15T16:11:15.402Z,20.23
2022-10-15T16:13:43.663Z,19.33
2022-10-15T16:16:13.197Z,19.67
2022-10-15T16:18:41.952Z,21.38
2022-10-15T16:21:09.891Z,21.05
2022-10-15T16:23:38.071Z,20.02
2022-10-15T16:26:06.032Z,19.95
2022-10-15T16:28:34.289Z,20.13
2022-10-15T16:31:26.499Z,19.27
2022-10-15T16:33:57.843Z,20.50
2022-10-15T16:36:26.275Z,21.95
2022-10-15T16:38:54.638Z,22.88
2022-10-15T16:41:22.269Z,21.25
2022-10-15T16:43:50.464Z,22.90
2022-10-15T16:46:19.688Z,21.88
2022-10-15T16:48:56.211Z,22.90
2022-10-15T16:51:24.744Z,22.38
2022-10-15T16:53:53.130Z,24.48
2022-10-15T16:56:23.421Z,22.92
2022-10-15T16:58:51.870Z,23.95
2022-10-15T17:01:22.517Z,25.52
2022-10-15T17:03:50.752Z,26.23
2022-10-15T17:06:21.345Z,25.92
2022-10-15T17:08:51.094Z,24.85
2022-10-15T17:11:21.765Z,26.35
2022-10-15T17:13:52.200Z,24.08
2022-10-15T17:16:21.223Z,24.88
2022-10-15T17:21:21.370Z,24.23
2022-10-15T17:23:51.967Z,25.85
2022-10-15T17:26:22.295Z,25.92
2022-10-15T17:28:50.994Z,24.88
2022-10-15T17:31:22.553Z,23.98
2022-10-15T17:33:56.267Z,24.75
2022-10-15T17:36:24.868Z,23.30
2022-10-15T17:38:53.383Z,25.27
2022-10-15T17:41:22.446Z,23.80
2022-10-15T17:43:51.133Z,23.55
2022-10-15T17:46:21.608Z,24.50
2022-10-15T17:48:50.445Z,23.95
2022-10-15T17:51:20.645Z,25.10
2022-10-15T17:53:51.630Z,25.13
2022-10-15T17:56:23.194Z,23.95
2022-10-15T18:01:39.185Z,24.10
2022-10-15T18:04:18.224Z,25.00
2022-10-15T18:06:46.040Z,25.98
2022-10-15T18:09:27.688Z,24.13
2022-10-15T18:12:03.945Z,27.30
2022-10-15T18:14:34.555Z,25.83
2022-10-15T18:17:02.451Z,26.23
2022-10-15T18:19:31.141Z,26.20
2022-10-15T18:21:59.534Z,25.83
2022-10-15T18:24:27.505Z,26.40
2022-10-15T18:26:55.830Z,26.85
2022-10-15T18:29:25.648Z,27.70
2022-10-15T18:31:57.674Z,27.33
2022-10-15T18:34:28.180Z,27.50
2022-10-15T18:36:56.634Z,26.65
2022-10-15T18:39:25.288Z,27.95
2022-10-15T18:41:54.204Z,26.33
2022-10-15T18:44:23.483Z,26.20
2022-10-15T18:46:52.270Z,26.45
2022-10-15T18:49:21.696Z,25.58
2022-10-15T18:51:51.922Z,27.90
2022-10-15T18:54:21.105Z,25.08
2022-10-15T18:56:48.913Z,26.55
2022-10-15T18:59:20.332Z,24.58
2022-10-15T19:01:49.913Z,26.25
2022-10-15T19:04:19.654Z,25.15
2022-10-15T19:06:51.072Z,26.25
2022-10-15T19:09:23.063Z,27.73
2022-10-15T19:11:53.706Z,26.63
2022-10-15T19:14:22.579Z,26.17
2022-10-15T19:16:50.929Z,27.02
2022-10-15T19:19:21.413Z,26.30
2022-10-15T19:21:50.513Z,26.98
2022-10-15T19:24:20.002Z,26.98
2022-10-15T19:26:48.662Z,25.30
2022-10-15T19:29:17.324Z,25.85
2022-10-15T19:31:49.496Z,25.75
2022-10-15T19:34:17.708Z,25.00
2022-10-15T19:36:48.787Z,24.45
2022-10-15T19:39:20.535Z,25.75
2022-10-15T19:41:49.421Z,25.45
2022-10-15T19:44:20.202Z,24.30
2022-10-15T19:46:48.432Z,24.98
2022-10-15T19:49:16.548Z,25.63
2022-10-15T19:51:46.897Z,24.88
2022-10-15T19:54:15.592Z,28.38
2022-10-15T19:56:43.653Z,25.67
2022-10-15T19:59:12.099Z,28.67
2022-10-15T20:01:40.012Z,26.42
2022-10-15T20:04:08.327Z,25.10
2022-10-15T20:06:38.507Z,24.45
2022-10-15T20:09:07.879Z,27.17
2022-10-15T20:11:37.330Z,26.27
2022-10-15T20:14:06.081Z,26.70
2022-10-15T20:16:33.903Z,25.73
2022-10-15T20:19:04.208Z,24.77
2022-10-15T20:21:33.032Z,24.27
2022-10-15T20:24:05.158Z,25.30
2022-10-15T20:26:34.144Z,25.63
2022-10-15T20:29:02.793Z,26.35
2022-10-15T20:31:33.300Z,25.35
2022-10-15T20:34:03.210Z,26.73
2022-10-15T20:36:31.844Z,27.85
2022-10-15T20:39:01.504Z,26.50
2022-10-15T20:41:29.358Z,25.73
2022-10-15T20:43:57.942Z,25.00
2022-10-15T20:46:41.348Z,26.35
2022-10-15T20:49:22.452Z,25.95
2022-10-15T20:51:51.214Z,25.77
2022-10-15T20:54:19.883Z,26.20
2022-10-15T20:56:48.431Z,39.28
2022-10-15T20:59:16.514Z,52.35
2022-10-15T21:01:44.923Z,36.92
2022-10-15T21:04:13.383Z,34.17
2022-10-15T21:06:41.163Z,30.10
2022-10-15T21:09:09.175Z,29.42
2022-10-15T21:11:42.407Z,28.65
2022-10-15T21:14:11.364Z,29.17
2022-10-15T21:16:40.897Z,25.65
2022-10-15T21:19:09.489Z,24.95
2022-10-15T21:21:37.730Z,26.38
2022-10-15T21:24:05.893Z,23.83
2022-10-15T21:26:33.764Z,22.98
2022-10-15T21:29:02.064Z,24.35
2022-10-15T21:31:29.943Z,24.38
2022-10-15T21:33:58.507Z,22.88
2022-10-15T21:36:28.053Z,21.35
2022-10-15T21:39:04.678Z,21.10
2022-10-15T21:41:34.523Z,22.00
2022-10-15T21:44:04.291Z,23.00
2022-10-15T21:46:33.577Z,20.95
2022-10-15T21:49:02.651Z,21.80
2022-10-15T21:51:33.911Z,22.23
2022-10-15T21:54:03.752Z,22.48
2022-10-15T21:56:32.252Z,21.88
2022-10-15T21:59:00.836Z,24.83
2022-10-15T22:01:33.748Z,24.02
2022-10-15T22:04:08.075Z,20.70
2022-10-15T22:06:36.828Z,20.27
2022-10-15T22:09:05.341Z,20.67
2022-10-15T22:11:39.135Z,21.77
2022-10-15T22:14:11.427Z,20.08
2022-10-15T22:16:40.213Z,20.27
2022-10-15T22:19:09.886Z,21.30
2022-10-15T22:21:38.711Z,21.35
2022-10-15T22:24:18.552Z,21.00
2022-10-15T22:26:49.720Z,19.90
2022-10-15T22:29:26.234Z,20.58
2022-10-15T22:31:55.731Z,19.30
2022-10-15T22:34:24.332Z,19.73
2022-10-15T22:36:52.132Z,19.17
2022-10-15T22:39:20.600Z,20.00
2022-10-15T22:41:48.642Z,20.00
2022-10-15T22:44:20.859Z,19.95
2022-10-15T22:46:49.827Z,21.15
2022-10-15T22:49:20.140Z,22.10
2022-10-15T22:51:48.839Z,18.33
2022-10-15T22:54:18.039Z,18.80
2022-10-15T22:56:47.744Z,18.42
2022-10-15T22:59:16.254Z,19.23
2022-10-15T23:01:46.111Z,17.63
2022-10-15T23:04:16.759Z,18.95
2022-10-15T23:06:44.717Z,18.33
2022-10-15T23:09:18.263Z,18.73
2022-10-15T23:11:46.874Z,18.35
2022-10-15T23:14:16.424Z,17.33
2022-10-15T23:16:46.778Z,18.30
2022-10-15T23:19:17.571Z,17.95
2022-10-15T23:22:05.553Z,16.70
2022-10-15T23:24:33.908Z,17.35
2022-10-15T23:27:02.213Z,15.75
2022-10-15T23:29:30.316Z,16.90
2022-10-15T23:31:58.649Z,16.88
2022-10-15T23:34:27.267Z,17.35
2022-10-15T23:36:55.248Z,16.08
2022-10-15T23:39:26.896Z,16.67
2022-10-15T23:41:55.273Z,16.65
2022-10-15T23:44:26.021Z,17.35
2022-10-15T23:46:54.807Z,16.85
2022-10-15T23:49:23.135Z,16.63
2022-10-15T23:51:50.822Z,17.70
2022-10-15T23:54:18.944Z,16.38
2022-10-15T23:56:47.499Z,16.55
2022-10-15T23:59:16.892Z,15.90
